Terminal Aerodrome Forecast
Issued by NWS Wakefield, VA

Home | Current Version | Previous Version | Text Only | Print | Product List | Glossary On
Versions: 1 2 3 4 5 6 7 8 9 10 11 12 13 14 15 16 17 18
000
FTUS41 KAKQ 271130
TAFECG
TAF
KECG 271130Z 2712/2812 30003KT P6SM SKC
     FM271400 31008KT P6SM FEW090
     FM271800 33012KT P6SM BKN060
     FM272300 33008KT P6SM BKN100=

USA.gov is the U.S. government's official web portal to all federal, state and local government web resources and services.